createdAt,value
2023-06-29T00:00:12.809Z,73.65
2023-06-29T00:02:14.480Z,73.92
2023-06-29T00:04:22.350Z,74.21
2023-06-29T00:06:24.061Z,74.24
2023-06-29T00:08:27.200Z,74.25
2023-06-29T00:10:30.181Z,74.63
2023-06-29T00:12:31.921Z,74.62
2023-06-29T00:14:33.606Z,74.55
2023-06-29T00:16:36.289Z,75.22
2023-06-29T00:18:38.015Z,75.33
2023-06-29T00:20:40.869Z,75.45
2023-06-29T00:22:49.236Z,74.89
2023-06-29T00:24:56.541Z,74.88
2023-06-29T00:26:58.189Z,74.89
2023-06-29T00:28:59.774Z,74.83
2023-06-29T00:31:01.507Z,74.77
2023-06-29T00:33:03.250Z,74.40
2023-06-29T00:35:05.256Z,74.57
2023-06-29T00:37:07.002Z,74.71
2023-06-29T00:39:08.778Z,74.65
2023-06-29T00:41:10.605Z,74.44
2023-06-29T00:43:12.251Z,74.53
2023-06-29T00:45:13.943Z,74.16
2023-06-29T00:47:15.828Z,73.81
2023-06-29T00:49:17.843Z,73.67
2023-06-29T00:51:19.558Z,73.51
2023-06-29T00:53:21.163Z,73.51
2023-06-29T00:55:22.816Z,73.56
2023-06-29T00:57:25.349Z,73.63
2023-06-29T00:59:27.137Z,73.53
2023-06-29T01:01:28.875Z,73.91
2023-06-29T01:03:32.072Z,74.07
2023-06-29T01:05:35.124Z,73.78
2023-06-29T01:08:00.639Z,73.52
2023-06-29T01:10:04.866Z,73.90
2023-06-29T01:12:07.448Z,73.82
2023-06-29T01:14:12.196Z,74.27
2023-06-29T01:16:15.461Z,74.26
2023-06-29T01:18:18.055Z,74.40
2023-06-29T01:20:20.111Z,74.49
2023-06-29T01:22:27.764Z,73.72
2023-06-29T01:24:38.428Z,73.75
2023-06-29T01:26:40.050Z,73.51
2023-06-29T01:28:41.719Z,73.50
2023-06-29T01:30:50.786Z,73.52
2023-06-29T01:32:52.713Z,73.84
2023-06-29T01:34:54.639Z,73.57
2023-06-29T01:37:03.234Z,73.26
2023-06-29T01:39:18.450Z,73.19
2023-06-29T01:41:20.828Z,73.58
2023-06-29T01:43:23.233Z,73.74
2023-06-29T01:45:25.921Z,73.44
2023-06-29T01:47:28.466Z,73.16
2023-06-29T01:49:30.238Z,73.31
2023-06-29T01:51:32.035Z,73.88
2023-06-29T01:53:37.237Z,73.67
2023-06-29T01:55:38.977Z,73.47
2023-06-29T01:57:40.721Z,73.37
2023-06-29T01:59:42.793Z,73.34
2023-06-29T02:01:44.468Z,73.29
2023-06-29T02:03:46.264Z,73.38
2023-06-29T02:05:48.039Z,73.40
2023-06-29T02:07:49.773Z,73.46
2023-06-29T02:09:52.659Z,73.54
2023-06-29T02:11:54.465Z,73.12
2023-06-29T02:13:56.192Z,73.45
2023-06-29T02:15:57.888Z,73.46
2023-06-29T02:17:59.719Z,73.32
2023-06-29T02:20:01.448Z,72.94
2023-06-29T02:22:03.170Z,73.14
2023-06-29T02:24:05.582Z,73.10
2023-06-29T02:26:07.468Z,72.95
2023-06-29T02:28:09.189Z,72.85
2023-06-29T02:30:11.219Z,72.82
2023-06-29T02:32:12.890Z,73.14
2023-06-29T02:34:14.531Z,73.10
2023-06-29T02:36:22.203Z,72.93
2023-06-29T02:38:24.000Z,72.84
2023-06-29T02:40:25.670Z,72.47
2023-06-29T02:42:28.479Z,72.60
2023-06-29T02:44:30.128Z,72.59
2023-06-29T02:46:31.847Z,72.70
2023-06-29T02:48:33.528Z,72.69
2023-06-29T02:50:35.335Z,72.94
2023-06-29T02:52:36.966Z,73.06
2023-06-29T02:54:38.607Z,72.96
2023-06-29T02:56:40.346Z,72.87
2023-06-29T02:58:42.001Z,72.98
2023-06-29T03:00:43.703Z,72.66
2023-06-29T03:02:45.433Z,72.55
2023-06-29T03:04:47.050Z,72.65
2023-06-29T03:06:48.730Z,72.70
2023-06-29T03:08:50.435Z,72.64
2023-06-29T03:10:52.615Z,72.84
2023-06-29T03:12:54.296Z,72.58
2023-06-29T03:14:55.960Z,72.36
2023-06-29T03:16:57.676Z,72.33
2023-06-29T03:18:59.370Z,72.70
2023-06-29T03:21:12.537Z,72.76
2023-06-29T03:23:19.152Z,72.39
2023-06-29T03:25:20.760Z,72.32
2023-06-29T03:27:22.381Z,72.18
2023-06-29T03:29:24.142Z,72.20
2023-06-29T03:31:25.848Z,72.02
2023-06-29T03:33:27.589Z,72.08
2023-06-29T03:35:29.255Z,72.03
2023-06-29T03:37:30.859Z,71.75
2023-06-29T03:39:32.523Z,71.52
2023-06-29T03:41:34.137Z,71.27
2023-06-29T03:43:35.871Z,71.11
2023-06-29T03:45:37.497Z,71.04
2023-06-29T03:47:39.201Z,70.47
2023-06-29T03:49:40.812Z,70.39
2023-06-29T03:51:42.493Z,70.58
2023-06-29T03:53:44.285Z,70.23
2023-06-29T03:55:46.497Z,70.28
2023-06-29T03:57:49.094Z,70.56
2023-06-29T03:59:50.785Z,70.01
2023-06-29T04:01:52.396Z,70.23
2023-06-29T04:03:54.856Z,70.54
2023-06-29T04:05:56.606Z,69.87
2023-06-29T04:08:06.312Z,69.35
2023-06-29T04:10:08.441Z,69.26
2023-06-29T04:12:10.374Z,69.49
2023-06-29T04:14:12.003Z,69.59
2023-06-29T04:16:14.676Z,69.08
2023-06-29T04:18:16.338Z,68.91
2023-06-29T04:20:18.375Z,69.31
2023-06-29T04:22:20.070Z,69.14
2023-06-29T04:24:21.961Z,69.08
2023-06-29T04:26:23.816Z,69.21
2023-06-29T04:28:25.572Z,69.23
2023-06-29T04:30:27.234Z,69.12
2023-06-29T04:32:28.942Z,68.72
2023-06-29T04:34:31.252Z,69.20
2023-06-29T04:36:33.011Z,68.67
2023-06-29T04:38:34.694Z,68.65
2023-06-29T04:40:40.267Z,68.66
2023-06-29T04:42:49.146Z,69.17
2023-06-29T04:44:50.871Z,68.21
2023-06-29T04:46:52.530Z,67.98
2023-06-29T04:48:54.158Z,67.97
2023-06-29T04:51:03.490Z,68.12
2023-06-29T04:53:10.723Z,67.09
2023-06-29T04:55:12.546Z,66.86
2023-06-29T04:57:14.183Z,66.70
2023-06-29T04:59:15.928Z,67.05
2023-06-29T05:01:17.596Z,67.54
2023-06-29T05:03:19.440Z,67.26
2023-06-29T05:05:21.160Z,67.17
2023-06-29T05:07:22.856Z,67.13
2023-06-29T05:09:24.476Z,67.39
2023-06-29T05:11:26.172Z,67.38
2023-06-29T05:13:27.807Z,67.26
2023-06-29T05:15:29.724Z,67.59
2023-06-29T05:17:33.744Z,67.44
2023-06-29T05:19:37.527Z,67.13
2023-06-29T05:21:39.199Z,66.30
2023-06-29T05:23:40.841Z,66.46
2023-06-29T05:25:43.580Z,67.25
2023-06-29T05:27:45.653Z,66.63
2023-06-29T05:29:47.406Z,66.81
2023-06-29T05:31:49.149Z,66.46
2023-06-29T05:33:50.845Z,66.34
2023-06-29T05:35:52.449Z,66.27
2023-06-29T05:37:54.138Z,66.15
2023-06-29T05:39:57.814Z,65.88
2023-06-29T05:41:59.341Z,66.23
2023-06-29T05:44:01.127Z,65.86
2023-06-29T05:46:04.065Z,66.53
2023-06-29T05:48:06.692Z,65.88
2023-06-29T05:50:08.929Z,67.01
2023-06-29T05:52:10.640Z,66.74
2023-06-29T05:54:12.237Z,67.52
2023-06-29T05:56:13.915Z,69.34
2023-06-29T05:58:15.557Z,71.14
2023-06-29T06:00:19.388Z,70.87
2023-06-29T06:02:21.247Z,71.44
2023-06-29T06:04:22.932Z,70.74
2023-06-29T06:06:24.649Z,70.81
2023-06-29T06:08:26.309Z,69.94
2023-06-29T06:10:27.974Z,69.28
2023-06-29T06:12:30.089Z,68.71
2023-06-29T06:14:31.723Z,68.31
2023-06-29T06:16:33.495Z,69.73
2023-06-29T06:18:35.177Z,70.14
2023-06-29T06:20:36.976Z,69.82
2023-06-29T06:22:38.658Z,70.10
2023-06-29T06:24:40.292Z,69.62
2023-06-29T06:26:41.925Z,68.47
2023-06-29T06:28:43.566Z,65.89
2023-06-29T06:30:45.395Z,64.36
2023-06-29T06:32:47.208Z,64.00
2023-06-29T06:34:52.028Z,64.34
2023-06-29T06:36:53.720Z,63.87
2023-06-29T06:38:55.329Z,63.89
2023-06-29T06:40:57.164Z,64.80
2023-06-29T06:42:59.934Z,65.59
2023-06-29T06:45:04.836Z,66.76
2023-06-29T06:47:06.869Z,67.30
2023-06-29T06:49:08.556Z,68.62
2023-06-29T06:51:10.182Z,67.92
2023-06-29T06:53:11.961Z,67.31
2023-06-29T06:55:13.881Z,66.34
2023-06-29T06:57:15.646Z,65.30
2023-06-29T06:59:17.406Z,65.00
2023-06-29T07:01:22.420Z,63.20
2023-06-29T07:03:25.625Z,64.71
2023-06-29T07:05:27.308Z,66.35
2023-06-29T07:07:28.988Z,66.56
2023-06-29T07:09:31.113Z,67.78
2023-06-29T07:11:32.774Z,67.30
2023-06-29T07:13:34.421Z,65.49
2023-06-29T07:15:36.043Z,64.88
2023-06-29T07:17:37.746Z,63.78
2023-06-29T07:24:08.186Z,62.23
2023-06-29T07:26:10.131Z,62.40
2023-06-29T07:28:13.014Z,63.20
2023-06-29T07:30:15.053Z,64.14
2023-06-29T07:32:16.697Z,63.96
2023-06-29T07:34:23.911Z,63.10
2023-06-29T07:36:26.995Z,63.28
2023-06-29T07:38:28.626Z,62.46
2023-06-29T07:40:30.449Z,61.72
2023-06-29T07:42:39.456Z,62.45
2023-06-29T07:44:41.890Z,60.51
2023-06-29T07:46:43.702Z,59.85
2023-06-29T07:48:45.503Z,58.87
2023-06-29T07:50:47.169Z,59.05
2023-06-29T07:52:48.812Z,60.02
2023-06-29T07:54:53.018Z,61.19
2023-06-29T07:58:59.176Z,59.73
2023-06-29T08:01:00.810Z,57.13
2023-06-29T08:03:02.604Z,58.25
2023-06-29T08:07:10.735Z,59.70
2023-06-29T08:09:12.935Z,60.46
2023-06-29T08:11:15.345Z,60.49
2023-06-29T08:13:17.504Z,59.89
2023-06-29T08:15:19.261Z,58.71
2023-06-29T08:17:21.016Z,57.72
2023-06-29T08:19:22.708Z,56.69
2023-06-29T08:21:24.551Z,57.01
2023-06-29T08:23:26.304Z,56.69
2023-06-29T08:25:28.642Z,56.66
2023-06-29T08:27:30.320Z,56.64
2023-06-29T08:29:31.993Z,57.28
2023-06-29T08:31:33.982Z,56.71
2023-06-29T08:33:35.871Z,56.28
2023-06-29T08:35:37.524Z,56.35
2023-06-29T08:37:39.299Z,56.66
2023-06-29T08:39:41.518Z,56.04
2023-06-29T08:41:43.167Z,55.52
2023-06-29T08:43:45.059Z,55.61
2023-06-29T08:45:47.263Z,55.52
2023-06-29T08:47:52.837Z,55.43
2023-06-29T08:49:57.659Z,56.12
2023-06-29T08:52:00.959Z,53.61
2023-06-29T08:54:02.971Z,53.24
2023-06-29T08:56:04.948Z,51.68
2023-06-29T08:58:06.771Z,52.07
2023-06-29T09:00:09.821Z,54.38
2023-06-29T09:02:11.994Z,53.74
2023-06-29T09:04:13.939Z,53.72
2023-06-29T09:06:16.392Z,53.70
2023-06-29T09:08:18.423Z,54.58
2023-06-29T09:10:20.124Z,54.46
2023-06-29T09:12:21.861Z,54.30
2023-06-29T09:14:23.749Z,54.84
2023-06-29T09:16:29.655Z,55.49
2023-06-29T09:18:34.002Z,55.61
2023-06-29T09:20:36.691Z,53.75
2023-06-29T09:22:40.436Z,52.55
2023-06-29T09:24:57.309Z,53.10
2023-06-29T09:27:04.237Z,52.41
2023-06-29T09:29:05.868Z,52.27
2023-06-29T09:31:09.827Z,53.04
2023-06-29T09:33:13.144Z,53.49
2023-06-29T09:35:14.805Z,53.44
2023-06-29T09:37:17.446Z,53.41
2023-06-29T09:39:20.234Z,53.14
2023-06-29T09:41:21.989Z,53.29
2023-06-29T09:43:28.393Z,54.39
2023-06-29T09:45:31.941Z,53.19
2023-06-29T09:49:56.033Z,51.32
2023-06-29T09:52:05.230Z,50.92
2023-06-29T09:54:15.003Z,51.18
2023-06-29T09:56:17.588Z,49.23
2023-06-29T09:58:19.749Z,48.89
2023-06-29T10:00:21.652Z,50.30
2023-06-29T10:02:23.411Z,49.69
2023-06-29T10:04:28.247Z,49.96
2023-06-29T10:06:51.318Z,49.62
2023-06-29T10:08:56.682Z,49.20
2023-06-29T10:11:03.683Z,49.82
2023-06-29T10:13:06.976Z,51.36
2023-06-29T10:15:10.441Z,51.99
2023-06-29T10:17:44.323Z,50.54
2023-06-29T10:19:46.810Z,49.30
2023-06-29T10:21:57.998Z,49.79
2023-06-29T10:24:00.289Z,48.58
2023-06-29T10:26:02.447Z,48.10
2023-06-29T10:28:04.811Z,47.75
2023-06-29T10:30:07.072Z,48.04
2023-06-29T10:32:08.950Z,46.82
2023-06-29T10:34:10.588Z,47.75
2023-06-29T10:36:14.197Z,46.81
2023-06-29T10:38:15.904Z,45.42
2023-06-29T10:40:26.066Z,47.53
2023-06-29T10:42:28.054Z,49.02
2023-06-29T10:44:35.802Z,49.12
2023-06-29T10:46:50.731Z,49.04
2023-06-29T10:49:00.817Z,48.43
2023-06-29T10:51:07.161Z,46.55
2023-06-29T10:53:11.699Z,46.75
2023-06-29T10:55:24.292Z,46.67
2023-06-29T10:57:31.970Z,46.41
2023-06-29T10:59:35.572Z,46.58
2023-06-29T11:01:37.135Z,45.43
2023-06-29T11:03:39.220Z,46.41
2023-06-29T11:05:41.186Z,46.26
2023-06-29T11:07:44.573Z,46.22
2023-06-29T11:09:46.243Z,44.62
2023-06-29T11:11:48.825Z,45.26
2023-06-29T11:13:50.463Z,45.37
2023-06-29T11:15:58.748Z,45.64
2023-06-29T11:18:03.750Z,45.42
2023-06-29T11:20:06.988Z,43.94
2023-06-29T11:22:08.800Z,43.71
2023-06-29T11:24:11.394Z,42.15
2023-06-29T11:26:13.128Z,43.05
2023-06-29T11:28:17.931Z,43.36
2023-06-29T11:30:21.440Z,43.01
2023-06-29T11:32:23.144Z,41.29
2023-06-29T11:34:24.785Z,42.63
2023-06-29T11:36:30.115Z,42.90
2023-06-29T11:38:32.118Z,42.60
2023-06-29T11:40:35.215Z,42.71
2023-06-29T11:42:37.538Z,42.06
2023-06-29T11:44:39.241Z,42.77
2023-06-29T11:46:41.298Z,43.61
2023-06-29T11:48:55.377Z,44.08
2023-06-29T11:51:00.452Z,41.85
2023-06-29T11:53:02.443Z,42.08
2023-06-29T11:55:07.375Z,43.23
2023-06-29T11:57:09.552Z,44.01
2023-06-29T11:59:13.437Z,44.81
2023-06-29T12:01:16.146Z,43.20
2023-06-29T12:03:19.608Z,42.98
2023-06-29T12:05:27.057Z,43.05
2023-06-29T12:07:55.040Z,42.88
2023-06-29T12:09:56.875Z,42.54
2023-06-29T12:12:03.652Z,41.89
2023-06-29T12:14:05.303Z,41.38
2023-06-29T12:18:17.090Z,39.73
2023-06-29T12:20:21.193Z,39.61
2023-06-29T12:22:24.640Z,40.10
2023-06-29T12:24:29.101Z,40.47
2023-06-29T12:26:31.394Z,37.93
2023-06-29T12:28:33.822Z,39.23
2023-06-29T12:30:36.435Z,39.71
2023-06-29T12:32:38.734Z,38.77
2023-06-29T12:34:40.446Z,36.48
2023-06-29T12:36:42.128Z,38.40
2023-06-29T12:38:43.789Z,40.61
2023-06-29T12:40:45.467Z,42.16
2023-06-29T12:42:47.162Z,41.98
2023-06-29T12:44:48.883Z,42.29
2023-06-29T12:46:50.551Z,42.91
2023-06-29T12:48:52.204Z,43.28
2023-06-29T12:51:00.648Z,44.01
2023-06-29T12:53:02.338Z,43.42
2023-06-29T12:55:04.421Z,42.41
2023-06-29T12:57:06.366Z,41.48
2023-06-29T12:59:08.058Z,40.97
2023-06-29T13:01:09.714Z,41.62
2023-06-29T13:03:15.863Z,42.82
2023-06-29T13:05:17.808Z,42.95
2023-06-29T13:07:20.879Z,42.60
2023-06-29T13:09:23.207Z,41.73
2023-06-29T13:11:25.349Z,42.07
2023-06-29T13:13:27.900Z,41.53
2023-06-29T13:15:29.705Z,40.30
2023-06-29T13:17:31.389Z,40.26
2023-06-29T13:19:33.311Z,40.88
2023-06-29T13:21:36.272Z,39.90
2023-06-29T13:23:38.057Z,40.03
2023-06-29T13:25:40.854Z,40.19
2023-06-29T13:27:44.124Z,41.01
2023-06-29T13:29:45.859Z,40.45
2023-06-29T13:31:47.603Z,40.10
2023-06-29T13:33:49.292Z,38.87
2023-06-29T13:35:50.980Z,37.43
2023-06-29T13:37:52.655Z,38.14
2023-06-29T13:39:54.334Z,37.33
2023-06-29T13:41:56.052Z,37.01
2023-06-29T13:43:57.717Z,36.94
2023-06-29T13:45:59.367Z,36.56
2023-06-29T13:48:01.838Z,36.30
2023-06-29T13:50:03.785Z,36.18
2023-06-29T13:52:05.644Z,37.85
2023-06-29T13:54:07.532Z,38.91
2023-06-29T13:56:09.359Z,39.82
2023-06-29T13:58:11.002Z,38.07
2023-06-29T14:00:13.919Z,38.57
2023-06-29T14:02:15.669Z,37.52
2023-06-29T14:04:17.681Z,37.10
2023-06-29T14:06:19.974Z,37.92
2023-06-29T14:08:23.566Z,37.49
2023-06-29T14:10:26.120Z,38.04
2023-06-29T14:12:27.754Z,38.14
2023-06-29T14:14:29.384Z,38.03
2023-06-29T14:16:31.495Z,38.44
2023-06-29T14:18:33.196Z,38.01
2023-06-29T14:20:34.974Z,37.67
2023-06-29T14:22:36.671Z,37.51
2023-06-29T14:24:38.468Z,38.32
2023-06-29T14:26:40.224Z,38.25
2023-06-29T14:28:42.255Z,37.94
2023-06-29T14:30:43.971Z,38.67
2023-06-29T14:32:45.756Z,39.38
2023-06-29T14:34:49.525Z,39.27
2023-06-29T14:36:51.364Z,39.55
2023-06-29T14:38:53.254Z,37.97
2023-06-29T14:40:55.001Z,37.16
2023-06-29T14:42:56.738Z,36.38
2023-06-29T14:44:58.359Z,36.06
2023-06-29T14:47:00.848Z,36.61
2023-06-29T14:49:02.492Z,37.44
2023-06-29T14:51:04.148Z,37.98
2023-06-29T14:53:06.124Z,38.97
2023-06-29T14:55:08.520Z,39.31
2023-06-29T14:57:10.418Z,39.20
2023-06-29T14:59:12.656Z,38.87
2023-06-29T15:01:14.488Z,38.24
2023-06-29T15:03:16.320Z,38.33
2023-06-29T15:05:18.097Z,37.64
2023-06-29T15:07:19.910Z,37.08
2023-06-29T15:09:22.889Z,36.38
2023-06-29T15:11:24.529Z,36.45
2023-06-29T15:13:26.317Z,36.10
2023-06-29T15:15:27.997Z,37.69
2023-06-29T15:17:30.537Z,38.92
2023-06-29T15:19:32.235Z,37.76
2023-06-29T15:21:34.002Z,37.06
2023-06-29T15:23:35.673Z,35.95
2023-06-29T15:25:39.206Z,36.68
2023-06-29T15:27:41.840Z,38.58
2023-06-29T15:29:43.548Z,37.90
2023-06-29T15:31:45.272Z,37.55
2023-06-29T15:33:46.890Z,37.66
2023-06-29T15:35:49.440Z,38.16
2023-06-29T15:37:53.056Z,37.08
2023-06-29T15:39:55.141Z,35.75
2023-06-29T15:41:56.842Z,36.73
2023-06-29T15:44:01.867Z,38.09
2023-06-29T15:46:03.568Z,38.32
2023-06-29T15:48:05.351Z,38.91
2023-06-29T15:50:07.900Z,37.58
2023-06-29T15:52:09.572Z,37.61
2023-06-29T15:54:11.421Z,37.56
2023-06-29T15:56:13.080Z,36.86
2023-06-29T15:58:14.705Z,35.94
2023-06-29T16:00:16.839Z,35.77
2023-06-29T16:02:18.552Z,35.21
2023-06-29T16:04:20.416Z,35.54
2023-06-29T16:06:27.448Z,36.34
2023-06-29T16:08:29.086Z,35.80
2023-06-29T16:10:30.780Z,36.01
2023-06-29T16:12:32.824Z,36.52
2023-06-29T16:14:34.438Z,36.49
2023-06-29T16:16:36.295Z,36.68
2023-06-29T16:18:38.028Z,37.96
2023-06-29T16:20:39.755Z,39.06
2023-06-29T16:22:41.404Z,39.20
2023-06-29T16:24:43.095Z,39.36
2023-06-29T16:26:45.029Z,39.05
2023-06-29T16:28:46.681Z,39.47
2023-06-29T16:30:48.378Z,39.71
2023-06-29T16:32:50.058Z,39.13
2023-06-29T16:34:51.870Z,39.43
2023-06-29T16:36:53.666Z,38.76
2023-06-29T16:38:55.356Z,38.00
2023-06-29T16:40:57.036Z,37.69
2023-06-29T16:42:58.729Z,37.87
2023-06-29T16:45:00.404Z,38.59
2023-06-29T16:47:02.719Z,38.93
2023-06-29T16:49:04.439Z,39.96
2023-06-29T16:51:06.309Z,39.88
2023-06-29T16:53:08.009Z,39.58
2023-06-29T16:55:10.052Z,39.97
2023-06-29T16:57:11.810Z,39.65
2023-06-29T16:59:13.561Z,39.29
2023-06-29T17:01:15.337Z,39.92
2023-06-29T17:03:17.041Z,39.97
2023-06-29T17:05:18.833Z,40.19
2023-06-29T17:07:20.557Z,40.39
2023-06-29T17:09:22.238Z,39.34
2023-06-29T17:11:23.996Z,39.46
2023-06-29T17:13:28.448Z,39.10
2023-06-29T17:15:30.330Z,38.89
2023-06-29T17:17:32.123Z,39.31
2023-06-29T17:19:33.879Z,39.38
2023-06-29T17:21:35.608Z,39.58
2023-06-29T17:23:37.273Z,40.01
2023-06-29T17:25:48.326Z,41.46
2023-06-29T17:27:50.067Z,41.79
2023-06-29T17:29:51.768Z,42.15
2023-06-29T17:31:54.283Z,42.73
2023-06-29T17:33:56.269Z,42.56
2023-06-29T17:35:57.895Z,43.54
2023-06-29T17:37:59.566Z,44.01
2023-06-29T17:40:02.318Z,44.80
2023-06-29T17:42:04.245Z,45.75
2023-06-29T17:44:06.094Z,46.68
2023-06-29T17:46:07.856Z,47.89
2023-06-29T17:48:10.518Z,47.91
2023-06-29T17:50:12.189Z,47.68
2023-06-29T17:52:13.841Z,47.62
2023-06-29T17:54:15.489Z,47.72
2023-06-29T17:56:17.369Z,47.47
2023-06-29T17:58:19.111Z,47.67
2023-06-29T18:00:21.086Z,47.68
2023-06-29T18:02:22.868Z,47.60
2023-06-29T18:04:25.068Z,47.49
2023-06-29T18:06:26.971Z,47.58
2023-06-29T18:08:28.657Z,47.63
2023-06-29T18:10:30.379Z,48.28
2023-06-29T18:12:32.256Z,48.59
2023-06-29T18:14:33.876Z,48.67
2023-06-29T18:16:36.924Z,48.93
2023-06-29T18:18:38.618Z,48.49
2023-06-29T18:20:40.366Z,48.63
2023-06-29T18:22:42.140Z,49.02
2023-06-29T18:24:43.773Z,49.01
2023-06-29T18:26:46.764Z,49.24
2023-06-29T18:28:49.724Z,49.30
2023-06-29T18:30:51.628Z,49.05
2023-06-29T18:32:53.647Z,49.30
2023-06-29T18:34:55.378Z,49.29
2023-06-29T18:36:57.081Z,49.37
2023-06-29T18:38:58.750Z,49.42
2023-06-29T18:41:02.308Z,49.41
2023-06-29T18:43:03.866Z,50.01
2023-06-29T18:45:07.145Z,49.52
2023-06-29T18:47:11.006Z,49.76
2023-06-29T18:49:13.759Z,49.90
2023-06-29T18:51:15.462Z,49.90
2023-06-29T18:53:17.259Z,49.76
2023-06-29T18:55:19.109Z,49.70
2023-06-29T18:57:20.824Z,49.74
2023-06-29T18:59:22.857Z,49.76
2023-06-29T19:01:24.575Z,49.89
2023-06-29T19:03:28.031Z,50.02
2023-06-29T19:05:30.867Z,49.96
2023-06-29T19:07:32.619Z,50.16
2023-06-29T19:09:34.336Z,50.29
2023-06-29T19:11:36.106Z,50.31
2023-06-29T19:13:37.800Z,50.53
2023-06-29T19:15:41.420Z,50.43
2023-06-29T19:17:43.115Z,50.81
2023-06-29T19:19:45.212Z,50.73
2023-06-29T19:21:49.003Z,50.68
2023-06-29T19:23:51.406Z,50.76
2023-06-29T19:25:53.040Z,51.13
2023-06-29T19:27:54.691Z,51.13
2023-06-29T19:29:56.428Z,50.95
2023-06-29T19:31:58.125Z,51.23
2023-06-29T19:34:00.531Z,51.49
2023-06-29T19:36:02.214Z,51.53
2023-06-29T19:38:03.903Z,51.63
2023-06-29T19:40:06.339Z,51.58
2023-06-29T19:42:09.529Z,51.72
2023-06-29T19:44:11.281Z,51.69
2023-06-29T19:46:12.972Z,51.52
2023-06-29T19:48:15.313Z,51.92
2023-06-29T19:50:17.867Z,51.75
2023-06-29T19:52:19.997Z,51.51
2023-06-29T19:54:21.701Z,51.56
2023-06-29T19:56:23.559Z,51.47
2023-06-29T19:58:25.580Z,51.81
2023-06-29T20:00:29.101Z,51.58
2023-06-29T20:02:32.507Z,51.67
2023-06-29T20:04:34.315Z,51.46
2023-06-29T20:06:36.143Z,51.73
2023-06-29T20:08:37.842Z,51.68
2023-06-29T20:10:39.521Z,51.86
2023-06-29T20:12:41.160Z,52.16
2023-06-29T20:14:42.838Z,52.04
2023-06-29T20:16:44.801Z,52.05
2023-06-29T20:18:46.579Z,52.16
2023-06-29T20:20:48.384Z,52.20
2023-06-29T20:22:50.111Z,52.45
2023-06-29T20:24:51.802Z,52.64
2023-06-29T20:26:53.488Z,52.91
2023-06-29T20:28:56.729Z,53.04
2023-06-29T20:30:58.388Z,53.05
2023-06-29T20:33:00.082Z,53.13
2023-06-29T20:35:01.826Z,52.95
2023-06-29T20:37:03.783Z,53.05
2023-06-29T20:39:05.516Z,53.01
2023-06-29T20:41:07.272Z,52.96
2023-06-29T20:43:08.990Z,53.02
2023-06-29T20:45:13.421Z,52.80
2023-06-29T20:47:15.651Z,52.99
2023-06-29T20:49:20.500Z,52.90
2023-06-29T20:51:22.182Z,52.92
2023-06-29T20:53:23.878Z,52.86
2023-06-29T20:55:25.516Z,53.05
2023-06-29T20:57:27.222Z,53.29
2023-06-29T20:59:31.753Z,53.11
2023-06-29T21:01:34.496Z,53.17
2023-06-29T21:03:36.479Z,53.23
2023-06-29T21:05:38.278Z,53.06
2023-06-29T21:07:40.800Z,53.01
2023-06-29T21:09:42.616Z,52.88
2023-06-29T21:11:44.380Z,52.90
2023-06-29T21:13:46.251Z,53.02
2023-06-29T21:15:48.461Z,53.05
2023-06-29T21:17:50.595Z,53.14
2023-06-29T21:19:53.128Z,53.35
2023-06-29T21:21:55.008Z,53.36
2023-06-29T21:23:56.822Z,53.23
2023-06-29T21:25:58.756Z,53.50
2023-06-29T21:28:00.640Z,53.53
2023-06-29T21:30:03.337Z,53.92
2023-06-29T21:32:07.525Z,54.10
2023-06-29T21:34:10.875Z,54.33
2023-06-29T21:36:13.059Z,54.60
2023-06-29T21:38:14.916Z,54.64
2023-06-29T21:40:16.619Z,54.75
2023-06-29T21:42:19.783Z,54.78
2023-06-29T21:44:21.575Z,55.06
2023-06-29T21:46:23.250Z,55.28
2023-06-29T21:48:24.911Z,55.48
2023-06-29T21:50:26.737Z,55.37
2023-06-29T21:52:29.105Z,55.52
2023-06-29T21:54:30.815Z,55.55
2023-06-29T21:56:32.529Z,55.68
2023-06-29T21:58:34.176Z,56.11
2023-06-29T22:00:36.725Z,56.32
2023-06-29T22:02:38.781Z,56.38
2023-06-29T22:04:40.577Z,56.45
2023-06-29T22:06:42.238Z,56.78
2023-06-29T22:08:43.920Z,56.86
2023-06-29T22:10:45.644Z,56.90
2023-06-29T22:12:49.369Z,56.91
2023-06-29T22:14:50.935Z,57.05
2023-06-29T22:16:52.660Z,57.03
2023-06-29T22:18:54.398Z,57.25
2023-06-29T22:20:56.229Z,57.37
2023-06-29T22:22:58.963Z,57.38
2023-06-29T22:25:00.584Z,57.27
2023-06-29T22:27:02.197Z,57.12
2023-06-29T22:29:03.924Z,57.36
2023-06-29T22:31:05.690Z,57.39
2023-06-29T22:33:07.456Z,57.15
2023-06-29T22:35:09.293Z,56.78
2023-06-29T22:37:10.980Z,56.85
2023-06-29T22:39:12.722Z,56.96
2023-06-29T22:41:14.964Z,56.57
2023-06-29T22:43:16.667Z,56.60
2023-06-29T22:45:19.217Z,56.73
2023-06-29T22:47:22.465Z,56.49
2023-06-29T22:49:24.173Z,56.68
2023-06-29T22:51:26.229Z,56.54
2023-06-29T22:53:28.084Z,56.42
2023-06-29T22:55:29.785Z,56.49
2023-06-29T22:57:31.634Z,56.62
2023-06-29T22:59:33.278Z,56.81
2023-06-29T23:01:35.233Z,57.13
2023-06-29T23:03:37.089Z,57.62
2023-06-29T23:05:38.832Z,57.53
2023-06-29T23:07:45.035Z,57.28
2023-06-29T23:09:47.148Z,57.60
2023-06-29T23:11:49.789Z,57.43
2023-06-29T23:13:51.914Z,57.30
2023-06-29T23:15:53.670Z,57.24
2023-06-29T23:17:55.353Z,57.39
2023-06-29T23:19:58.285Z,57.25
2023-06-29T23:21:59.977Z,57.31
2023-06-29T23:24:04.497Z,57.14
2023-06-29T23:26:08.708Z,57.35
2023-06-29T23:28:10.762Z,57.60
2023-06-29T23:30:14.012Z,57.58
2023-06-29T23:32:15.720Z,57.79
2023-06-29T23:34:17.475Z,57.41
2023-06-29T23:36:22.593Z,57.43
2023-06-29T23:38:24.538Z,57.63
2023-06-29T23:40:27.268Z,57.62
2023-06-29T23:42:29.094Z,57.91
2023-06-29T23:44:30.895Z,57.72
2023-06-29T23:46:46.110Z,57.78
2023-06-29T23:48:47.772Z,57.77
2023-06-29T23:50:49.544Z,57.79
2023-06-29T23:52:51.221Z,57.95
2023-06-29T23:54:52.978Z,58.09
2023-06-29T23:56:54.696Z,58.31
2023-06-29T23:58:56.393Z,58.42
